Time;durP1;ratioP1;P1;durP2;ratioP2;P2;SDS_P1;SDS_P2;PMS_P1;PMS_P2;Temp;Humidity;BMP_temperature;BMP_pressure;BME280_temperature;BME280_humidity;BME280_pressure;Samples;Min_cycle;Max_cycle;Signal;HPM_P1;HPM_P2
2021/06/03 00:02:12;;;;;;;2.40;2.20;;;;;;;;;;5092414;28;20641;-83
2021/06/03 00:04:40;;;;;;;2.22;2.10;;;;;;;;;;5092384;28;20579;-83
2021/06/03 00:07:08;;;;;;;2.95;2.00;;;;;;;;;;5092666;28;20204;-83
2021/06/03 00:09:35;;;;;;;2.28;2.13;;;;;;;;;;5092578;28;20196;-83
2021/06/03 00:12:05;;;;;;;2.67;2.42;;;;;;;;;;5092111;28;20204;-82
2021/06/03 00:14:32;;;;;;;2.33;2.17;;;;;;;;;;5092609;28;20224;-83
2021/06/03 00:16:59;;;;;;;2.17;1.95;;;;;;;;;;5092230;28;20230;-83
2021/06/03 00:19:25;;;;;;;2.95;2.03;;;;;;;;;;5092302;28;20348;-83
2021/06/03 00:21:54;;;;;;;2.25;2.00;;;;;;;;;;5092252;28;20210;-83
2021/06/03 00:24:21;;;;;;;4.57;2.33;;;;;;;;;;5092134;28;20220;-83
2021/06/03 00:26:49;;;;;;;2.90;2.60;;;;;;;;;;5092554;28;20529;-83
2021/06/03 00:29:17;;;;;;;2.20;2.00;;;;;;;;;;5092426;28;20216;-83
2021/06/03 00:31:44;;;;;;;4.45;2.30;;;;;;;;;;5091902;28;20200;-83
2021/06/03 00:34:11;;;;;;;2.40;2.20;;;;;;;;;;5092147;28;20594;-83
2021/06/03 00:36:38;;;;;;;2.72;1.83;;;;;;;;;;5094029;28;20193;-83
2021/06/03 00:39:05;;;;;;;2.25;2.08;;;;;;;;;;5095777;28;20285;-83
2021/06/03 00:41:32;;;;;;;2.80;2.55;;;;;;;;;;5096524;28;20269;-83
2021/06/03 00:44:01;;;;;;;2.47;2.28;;;;;;;;;;5096037;28;20235;-83
2021/06/03 00:46:29;;;;;;;2.20;2.00;;;;;;;;;;5096271;28;20200;-82
2021/06/03 00:48:56;;;;;;;2.58;2.20;;;;;;;;;;5096012;28;20203;-83
2021/06/03 00:51:24;;;;;;;2.53;2.15;;;;;;;;;;5095547;28;20204;-82
2021/06/03 00:53:52;;;;;;;2.50;2.25;;;;;;;;;;5095777;28;20710;-83
2021/06/03 00:56:19;;;;;;;2.90;2.22;;;;;;;;;;5096000;28;20230;-83
2021/06/03 00:58:46;;;;;;;2.00;1.77;;;;;;;;;;5095951;28;20314;-83
2021/06/03 01:01:13;;;;;;;2.42;2.22;;;;;;;;;;5096070;28;20200;-83
2021/06/03 01:03:41;;;;;;;1.90;1.80;;;;;;;;;;5095527;28;20388;-83
2021/06/03 01:06:11;;;;;;;2.40;2.20;;;;;;;;;;5095420;28;20208;-83
2021/06/03 01:08:41;;;;;;;2.15;2.05;;;;;;;;;;5095905;28;20205;-83
2021/06/03 01:11:15;;;;;;;2.53;2.33;;;;;;;;;;5095739;28;20200;-82
2021/06/03 01:13:52;;;;;;;1.88;1.77;;;;;;;;;;5095676;28;20630;-82
2021/06/03 01:16:20;;;;;;;2.40;2.20;;;;;;;;;;5095632;28;20501;-83
2021/06/03 01:18:49;;;;;;;2.50;2.15;;;;;;;;;;5095238;28;20220;-83
2021/06/03 01:21:23;;;;;;;1.80;1.70;;;;;;;;;;5095489;28;20204;-83
2021/06/03 01:24:02;;;;;;;2.47;2.28;;;;;;;;;;5095639;28;20224;-83
2021/06/03 01:26:31;;;;;;;1.98;1.83;;;;;;;;;;5096532;28;20585;-83
2021/06/03 01:28:58;;;;;;;2.83;2.20;;;;;;;;;;5095813;28;20206;-83
2021/06/03 01:31:25;;;;;;;2.30;2.10;;;;;;;;;;5096246;28;20253;-83
2021/06/03 01:33:52;;;;;;;3.70;2.28;;;;;;;;;;5095889;28;20220;-83
2021/06/03 01:36:19;;;;;;;2.78;2.58;;;;;;;;;;5095630;28;20230;-83
2021/06/03 01:38:46;;;;;;;3.25;2.92;;;;;;;;;;5095378;28;20220;-82
2021/06/03 01:41:14;;;;;;;2.55;2.33;;;;;;;;;;5095071;28;20207;-83
2021/06/03 01:43:46;;;;;;;2.08;1.98;;;;;;;;;;5094481;28;20219;-83
2021/06/03 01:46:13;;;;;;;2.55;2.35;;;;;;;;;;5095316;28;20267;-82
2021/06/03 01:48:41;;;;;;;2.22;1.95;;;;;;;;;;5093958;28;20207;-83
2021/06/03 01:51:10;;;;;;;1.80;1.60;;;;;;;;;;5095092;28;20245;-83
2021/06/03 01:53:37;;;;;;;6.35;3.70;;;;;;;;;;5095057;28;20204;-82
2021/06/03 01:56:09;;;;;;;2.00;1.90;;;;;;;;;;5094947;28;20204;-83
2021/06/03 01:58:36;;;;;;;2.50;2.30;;;;;;;;;;5094583;28;20224;-82
2021/06/03 02:01:05;;;;;;;4.43;2.20;;;;;;;;;;5094986;28;20208;-83
2021/06/03 02:03:32;;;;;;;2.35;1.90;;;;;;;;;;5094480;28;20301;-82
2021/06/03 02:05:59;;;;;;;3.70;2.25;;;;;;;;;;5094680;28;20658;-83
2021/06/03 02:08:25;;;;;;;2.08;1.92;;;;;;;;;;5094548;28;20208;-82
2021/06/03 02:10:54;;;;;;;2.45;2.25;;;;;;;;;;5094394;28;20189;-82
2021/06/03 02:13:28;;;;;;;2.28;2.08;;;;;;;;;;5094621;28;20192;-82
2021/06/03 02:16:01;;;;;;;2.40;2.20;;;;;;;;;;5095585;28;20192;-83
2021/06/03 02:18:34;;;;;;;2.22;2.03;;;;;;;;;;5094770;28;20208;-82
2021/06/03 02:21:02;;;;;;;2.30;2.10;;;;;;;;;;5094755;28;20196;-83
2021/06/03 02:23:30;;;;;;;3.30;2.38;;;;;;;;;;5094669;28;20188;-82
2021/06/03 02:25:59;;;;;;;3.15;2.05;;;;;;;;;;5094840;28;20553;-82
2021/06/03 02:28:26;;;;;;;2.22;2.08;;;;;;;;;;5094542;28;20200;-83
2021/06/03 02:30:54;;;;;;;2.47;2.13;;;;;;;;;;5094547;28;20204;-83
2021/06/03 02:33:21;;;;;;;2.30;2.10;;;;;;;;;;5094539;28;20553;-83
2021/06/03 02:35:51;;;;;;;1.98;1.88;;;;;;;;;;5094086;28;20228;-82
2021/06/03 02:38:23;;;;;;;2.38;2.10;;;;;;;;;;5094381;28;20200;-83
2021/06/03 02:40:52;;;;;;;2.25;2.05;;;;;;;;;;5094238;28;20246;-83
2021/06/03 02:43:19;;;;;;;2.72;1.90;;;;;;;;;;5094268;28;20212;-83
2021/06/03 02:45:47;;;;;;;2.53;2.35;;;;;;;;;;5094253;28;20219;-82
2021/06/03 02:48:14;;;;;;;2.33;2.05;;;;;;;;;;5094242;28;20180;-82
2021/06/03 02:50:41;;;;;;;1.98;1.80;;;;;;;;;;5094044;28;20591;-83
2021/06/03 02:53:10;;;;;;;2.38;2.22;;;;;;;;;;5093962;28;20552;-83
2021/06/03 02:55:37;;;;;;;2.30;2.10;;;;;;;;;;5093126;28;20216;-82
2021/06/03 02:58:04;;;;;;;2.63;2.30;;;;;;;;;;5093122;28;20185;-83
2021/06/03 03:00:33;;;;;;;3.03;2.40;;;;;;;;;;5093746;28;20224;-83
2021/06/03 03:03:01;;;;;;;2.85;2.58;;;;;;;;;;5093676;28;20224;-83
2021/06/03 03:05:29;;;;;;;2.40;2.10;;;;;;;;;;5093922;28;20311;-83
2021/06/03 03:07:56;;;;;;;2.38;2.15;;;;;;;;;;5093831;28;20204;-83
2021/06/03 03:10:27;;;;;;;2.53;2.33;;;;;;;;;;5093650;28;20199;-83
2021/06/03 03:12:54;;;;;;;2.65;2.15;;;;;;;;;;5093459;28;20223;-83
2021/06/03 03:15:21;;;;;;;2.33;2.13;;;;;;;;;;5093514;28;20247;-84
2021/06/03 03:17:48;;;;;;;2.08;1.98;;;;;;;;;;5093806;28;20190;-83
2021/06/03 03:20:17;;;;;;;2.97;2.40;;;;;;;;;;5093209;28;20269;-83
2021/06/03 03:22:45;;;;;;;2.33;2.05;;;;;;;;;;5093747;28;20238;-83
2021/06/03 03:25:15;;;;;;;5.03;3.67;;;;;;;;;;5093240;28;20281;-82
2021/06/03 03:27:45;;;;;;;2.25;2.08;;;;;;;;;;5093250;28;20196;-83
2021/06/03 03:30:15;;;;;;;2.53;2.33;;;;;;;;;;5093273;28;20200;-83
2021/06/03 03:32:42;;;;;;;2.67;2.47;;;;;;;;;;5093360;28;20200;-83
2021/06/03 03:35:10;;;;;;;4.57;2.90;;;;;;;;;;5093149;28;20216;-83
2021/06/03 03:37:39;;;;;;;2.65;2.45;;;;;;;;;;5093153;28;20172;-83
2021/06/03 03:40:09;;;;;;;2.45;2.25;;;;;;;;;;5092966;28;20679;-83
2021/06/03 03:42:37;;;;;;;3.97;3.00;;;;;;;;;;5093314;28;20238;-82
2021/06/03 03:45:08;;;;;;;2.95;2.75;;;;;;;;;;5093282;28;20220;-83
2021/06/03 03:47:35;;;;;;;3.55;2.40;;;;;;;;;;5092697;28;20196;-83
2021/06/03 03:50:02;;;;;;;2.50;2.35;;;;;;;;;;5093242;28;20185;-83
2021/06/03 03:52:29;;;;;;;3.35;3.05;;;;;;;;;;5092866;28;20211;-83
2021/06/03 03:54:56;;;;;;;2.35;2.15;;;;;;;;;;5092494;28;20220;-83
2021/06/03 03:57:24;;;;;;;2.45;2.25;;;;;;;;;;5092685;28;20661;-82
2021/06/03 03:59:51;;;;;;;3.30;3.05;;;;;;;;;;5093035;28;20256;-82
2021/06/03 04:02:19;;;;;;;3.17;2.90;;;;;;;;;;5092734;28;20224;-83
2021/06/03 04:04:46;;;;;;;2.85;2.65;;;;;;;;;;5092950;28;20223;-83
2021/06/03 04:07:13;;;;;;;2.85;2.50;;;;;;;;;;5092603;28;20200;-83
2021/06/03 04:09:40;;;;;;;3.30;3.08;;;;;;;;;;5092618;28;20196;-82
2021/06/03 04:12:08;;;;;;;4.45;3.08;;;;;;;;;;5092425;28;20612;-82
2021/06/03 04:14:35;;;;;;;3.67;3.10;;;;;;;;;;5092605;28;20209;-84
2021/06/03 04:17:03;;;;;;;3.28;2.97;;;;;;;;;;5093198;28;20192;-83
2021/06/03 04:19:31;;;;;;;3.15;2.85;;;;;;;;;;5092590;28;20743;-83
2021/06/03 04:21:58;;;;;;;3.78;3.47;;;;;;;;;;5092699;28;20662;-83
2021/06/03 04:24:26;;;;;;;3.67;3.38;;;;;;;;;;5092906;28;20216;-83
2021/06/03 04:26:53;;;;;;;4.20;3.80;;;;;;;;;;5092931;28;20188;-83
2021/06/03 04:29:20;;;;;;;5.05;3.28;;;;;;;;;;5092598;28;20232;-83
2021/06/03 04:31:46;;;;;;;4.18;3.53;;;;;;;;;;5092342;28;20204;-83
2021/06/03 04:34:13;;;;;;;3.13;2.80;;;;;;;;;;5092184;28;20224;-83
2021/06/03 04:36:42;;;;;;;3.92;3.35;;;;;;;;;;5092425;28;20677;-83
2021/06/03 04:39:09;;;;;;;3.70;3.40;;;;;;;;;;5092759;28;20573;-84
2021/06/03 04:41:36;;;;;;;4.35;3.35;;;;;;;;;;5092452;28;20268;-83
2021/06/03 04:44:03;;;;;;;4.18;3.30;;;;;;;;;;5092073;28;20224;-83
2021/06/03 04:46:30;;;;;;;3.80;3.50;;;;;;;;;;5092356;28;20624;-83
2021/06/03 04:48:57;;;;;;;4.45;3.53;;;;;;;;;;5092474;28;20199;-82
2021/06/03 04:51:24;;;;;;;6.75;4.38;;;;;;;;;;5092550;28;20189;-83
2021/06/03 04:53:52;;;;;;;4.07;3.78;;;;;;;;;;5092150;28;20228;-83
2021/06/03 04:56:19;;;;;;;3.72;3.42;;;;;;;;;;5092278;28;20254;-83
2021/06/03 04:58:46;;;;;;;5.22;3.88;;;;;;;;;;5092738;28;20181;-83
2021/06/03 05:01:13;;;;;;;5.53;3.38;;;;;;;;;;5092556;28;20759;-82
2021/06/03 05:03:40;;;;;;;4.18;3.88;;;;;;;;;;5092042;28;20236;-83
2021/06/03 05:06:07;;;;;;;4.10;3.70;;;;;;;;;;5092586;28;20204;-83
2021/06/03 05:08:34;;;;;;;4.78;4.30;;;;;;;;;;5092422;28;20211;-83
2021/06/03 05:11:02;;;;;;;3.45;3.17;;;;;;;;;;5092265;28;20196;-83
2021/06/03 05:13:30;;;;;;;3.75;3.35;;;;;;;;;;5092299;28;20257;-83
2021/06/03 05:15:57;;;;;;;4.60;3.38;;;;;;;;;;5092392;28;20268;-84
2021/06/03 05:18:24;;;;;;;4.00;3.70;;;;;;;;;;5092238;28;20211;-84
2021/06/03 05:20:52;;;;;;;5.40;4.00;;;;;;;;;;5092185;28;20679;-83
2021/06/03 05:23:20;;;;;;;4.45;4.05;;;;;;;;;;5093400;28;20204;-83
2021/06/03 05:25:47;;;;;;;5.70;3.08;;;;;;;;;;5096098;28;20289;-84
2021/06/03 05:28:15;;;;;;;3.85;3.45;;;;;;;;;;5095824;28;20242;-83
2021/06/03 05:30:43;;;;;;;3.35;3.05;;;;;;;;;;5095759;28;20287;-83
2021/06/03 05:33:10;;;;;;;5.07;3.60;;;;;;;;;;5096056;28;20191;-83
2021/06/03 05:35:37;;;;;;;3.65;3.35;;;;;;;;;;5095412;28;20216;-83
2021/06/03 05:38:04;;;;;;;4.75;3.60;;;;;;;;;;5095874;28;20185;-83
2021/06/03 05:40:33;;;;;;;4.20;3.80;;;;;;;;;;5095569;28;20235;-83
2021/06/03 05:43:01;;;;;;;5.10;3.33;;;;;;;;;;5095949;28;20195;-83
2021/06/03 05:45:30;;;;;;;5.03;4.07;;;;;;;;;;5095447;28;20212;-83
2021/06/03 05:47:57;;;;;;;5.97;4.13;;;;;;;;;;5095538;28;20197;-84
2021/06/03 05:50:26;;;;;;;3.80;3.50;;;;;;;;;;5095370;28;20193;-83
2021/06/03 05:52:54;;;;;;;3.63;3.33;;;;;;;;;;5095289;28;20195;-83
2021/06/03 05:55:22;;;;;;;3.95;3.55;;;;;;;;;;5094764;28;20373;-84
2021/06/03 05:57:49;;;;;;;4.57;3.80;;;;;;;;;;5094953;28;20690;-84
2021/06/03 06:00:20;;;;;;;6.00;4.07;;;;;;;;;;5094897;28;20228;-85
2021/06/03 06:02:52;;;;;;;4.28;3.75;;;;;;;;;;5094801;28;20242;-84
2021/06/03 06:08:07;;;;;;;4.30;3.90;;;;;;;;;;5094701;28;20203;-85
2021/06/03 06:10:34;;;;;;;4.32;3.92;;;;;;;;;;5095075;28;20237;-84
2021/06/03 06:13:01;;;;;;;5.57;4.30;;;;;;;;;;5094983;28;20204;-84
2021/06/03 06:15:30;;;;;;;4.85;4.45;;;;;;;;;;5094683;28;20216;-84
2021/06/03 06:17:59;;;;;;;4.55;4.18;;;;;;;;;;5094641;28;20321;-84
2021/06/03 06:20:26;;;;;;;3.70;3.40;;;;;;;;;;5094650;28;20220;-84
2021/06/03 06:22:53;;;;;;;3.53;3.22;;;;;;;;;;5094427;28;20538;-84
2021/06/03 06:25:20;;;;;;;3.38;3.08;;;;;;;;;;5094572;28;20221;-84
2021/06/03 06:27:47;;;;;;;3.03;2.72;;;;;;;;;;5094759;28;20287;-84
2021/06/03 06:30:16;;;;;;;3.05;2.83;;;;;;;;;;5094734;28;20278;-84
2021/06/03 06:32:43;;;;;;;3.50;3.20;;;;;;;;;;5094033;28;20202;-84
2021/06/03 06:35:12;;;;;;;2.75;2.55;;;;;;;;;;5093653;28;20706;-84
2021/06/03 06:37:40;;;;;;;3.10;2.70;;;;;;;;;;5094459;28;20249;-83
2021/06/03 06:40:09;;;;;;;2.63;2.30;;;;;;;;;;5094572;28;20383;-83
2021/06/03 06:42:37;;;;;;;2.42;2.30;;;;;;;;;;5094665;28;20284;-83
2021/06/03 06:45:06;;;;;;;3.33;3.03;;;;;;;;;;5094583;28;20212;-84
2021/06/03 06:47:35;;;;;;;2.40;2.20;;;;;;;;;;5094425;28;20208;-84
2021/06/03 06:50:02;;;;;;;2.50;2.30;;;;;;;;;;5094261;28;20197;-83
2021/06/03 06:52:30;;;;;;;3.90;2.33;;;;;;;;;;5094672;28;20188;-83
2021/06/03 06:54:57;;;;;;;2.55;2.35;;;;;;;;;;5094057;28;20343;-84
2021/06/03 06:57:24;;;;;;;4.53;2.60;;;;;;;;;;5093843;28;20662;-85
2021/06/03 06:59:51;;;;;;;2.28;2.08;;;;;;;;;;5093987;28;20200;-83
2021/06/03 07:02:19;;;;;;;3.08;2.85;;;;;;;;;;5093633;28;20228;-83
2021/06/03 07:04:46;;;;;;;2.30;2.10;;;;;;;;;;5094078;28;20311;-84
2021/06/03 07:07:13;;;;;;;2.97;2.22;;;;;;;;;;5093931;28;20204;-84
2021/06/03 07:09:41;;;;;;;2.97;2.65;;;;;;;;;;5094160;28;20551;-84
2021/06/03 07:12:09;;;;;;;3.63;2.83;;;;;;;;;;5093602;28;20208;-84
2021/06/03 07:14:36;;;;;;;3.83;2.30;;;;;;;;;;5093302;28;20592;-84
2021/06/03 07:17:03;;;;;;;2.35;2.15;;;;;;;;;;5093421;28;20204;-83
2021/06/03 07:19:30;;;;;;;2.58;2.38;;;;;;;;;;5093821;28;20204;-84
2021/06/03 07:21:58;;;;;;;4.50;2.75;;;;;;;;;;5093086;28;20220;-84
2021/06/03 07:24:24;;;;;;;2.58;2.38;;;;;;;;;;5093612;28;20656;-82
2021/06/03 07:26:53;;;;;;;2.40;2.30;;;;;;;;;;5093376;28;20238;-84
2021/06/03 07:29:19;;;;;;;2.58;2.30;;;;;;;;;;5093099;28;20624;-85
2021/06/03 07:31:46;;;;;;;2.67;2.47;;;;;;;;;;5093307;28;20208;-84
2021/06/03 07:34:13;;;;;;;2.70;2.50;;;;;;;;;;5093243;28;20269;-84
2021/06/03 07:36:40;;;;;;;3.45;3.15;;;;;;;;;;5093345;28;20264;-84
2021/06/03 07:39:08;;;;;;;3.42;3.15;;;;;;;;;;5092912;28;20200;-85
2021/06/03 07:41:35;;;;;;;2.70;2.38;;;;;;;;;;5092891;28;20219;-83
2021/06/03 07:44:05;;;;;;;3.13;2.60;;;;;;;;;;5093329;28;20784;-84
2021/06/03 07:46:32;;;;;;;3.45;2.47;;;;;;;;;;5093056;28;20196;-84
2021/06/03 07:48:59;;;;;;;2.42;2.30;;;;;;;;;;5093498;28;20233;-85
2021/06/03 07:51:27;;;;;;;2.50;2.30;;;;;;;;;;5093557;28;20272;-84
2021/06/03 07:53:54;;;;;;;3.40;2.90;;;;;;;;;;5093900;28;20224;-84
2021/06/03 07:56:21;;;;;;;2.83;2.63;;;;;;;;;;5093054;28;20245;-84
2021/06/03 07:58:47;;;;;;;2.88;2.65;;;;;;;;;;5093410;28;20584;-85
2021/06/03 08:01:16;;;;;;;2.90;2.58;;;;;;;;;;5092990;28;20250;-84
2021/06/03 08:03:44;;;;;;;3.40;2.70;;;;;;;;;;5093072;28;20783;-85
2021/06/03 08:06:11;;;;;;;3.78;2.45;;;;;;;;;;5091750;28;20200;-83
2021/06/03 08:08:38;;;;;;;2.80;2.38;;;;;;;;;;5092863;28;20200;-83
2021/06/03 08:11:05;;;;;;;3.17;2.63;;;;;;;;;;5092221;28;20200;-84
2021/06/03 08:13:32;;;;;;;3.03;2.65;;;;;;;;;;5092605;28;20208;-84
2021/06/03 08:16:00;;;;;;;3.08;2.35;;;;;;;;;;5093484;28;20212;-85
2021/06/03 08:18:28;;;;;;;2.22;2.13;;;;;;;;;;5092635;28;20590;-84
2021/06/03 08:20:59;;;;;;;2.50;2.30;;;;;;;;;;5092696;28;20577;-85
2021/06/03 08:23:28;;;;;;;2.75;2.25;;;;;;;;;;5092568;28;20353;-83
2021/06/03 08:25:56;;;;;;;3.83;2.33;;;;;;;;;;5092659;28;20200;-83
2021/06/03 08:28:23;;;;;;;2.22;2.13;;;;;;;;;;5092652;28;20291;-84
2021/06/03 08:30:52;;;;;;;2.80;2.60;;;;;;;;;;5092591;28;20200;-84
2021/06/03 08:33:20;;;;;;;2.53;2.38;;;;;;;;;;5092311;28;20200;-84
2021/06/03 08:35:48;;;;;;;2.45;2.30;;;;;;;;;;5092700;28;20220;-84
2021/06/03 08:38:15;;;;;;;2.05;1.90;;;;;;;;;;5092825;28;20253;-84
2021/06/03 08:40:45;;;;;;;2.15;2.05;;;;;;;;;;5092686;28;20224;-85
2021/06/03 08:43:13;;;;;;;2.50;2.13;;;;;;;;;;5092307;28;20200;-84
2021/06/03 08:45:43;;;;;;;2.35;2.13;;;;;;;;;;5092194;28;20236;-85
2021/06/03 08:48:11;;;;;;;2.28;2.17;;;;;;;;;;5092435;28;20204;-84
2021/06/03 08:50:43;;;;;;;2.53;2.33;;;;;;;;;;5092093;28;20576;-84
2021/06/03 08:53:11;;;;;;;3.35;2.33;;;;;;;;;;5092341;28;20197;-84
2021/06/03 08:58:26;;;;;;;2.00;1.85;;;;;;;;;;5094825;28;20556;-85
2021/06/03 09:00:54;;;;;;;2.20;2.00;;;;;;;;;;5096115;28;20220;-84
2021/06/03 09:03:24;;;;;;;2.42;2.22;;;;;;;;;;5095769;28;20269;-85
2021/06/03 09:05:51;;;;;;;2.30;2.10;;;;;;;;;;5096020;28;20246;-85
2021/06/03 09:08:22;;;;;;;2.50;2.30;;;;;;;;;;5096166;28;20200;-86
2021/06/03 09:10:51;;;;;;;2.63;2.03;;;;;;;;;;5095980;28;20392;-85
2021/06/03 09:13:21;;;;;;;3.20;2.47;;;;;;;;;;5096032;28;20200;-85
2021/06/03 09:15:49;;;;;;;2.33;2.13;;;;;;;;;;5095729;28;20224;-85
2021/06/03 09:18:26;;;;;;;2.22;2.03;;;;;;;;;;5096238;28;20219;-85
2021/06/03 09:20:53;;;;;;;2.35;2.10;;;;;;;;;;5095528;28;20192;-85
2021/06/03 09:23:31;;;;;;;2.40;2.10;;;;;;;;;;5095706;28;20223;-86
2021/06/03 09:25:58;;;;;;;1.90;1.80;;;;;;;;;;5095487;28;20200;-84
2021/06/03 09:28:31;;;;;;;2.35;2.25;;;;;;;;;;5095575;28;20200;-85
2021/06/03 09:31:04;;;;;;;6.75;2.50;;;;;;;;;;5095872;28;20219;-85
2021/06/03 09:33:58;;;;;;;2.03;1.80;;;;;;;;;;5095742;28;20224;-86
2021/06/03 09:36:32;;;;;;;4.07;2.10;;;;;;;;;;5095385;28;20553;-85
2021/06/03 09:39:23;;;;;;;2.78;2.45;;;;;;;;;;5095446;28;20649;-85
2021/06/03 09:41:57;;;;;;;2.20;2.10;;;;;;;;;;5095155;28;20357;-86
2021/06/03 09:44:31;;;;;;;3.83;2.05;;;;;;;;;;5095221;28;20706;-86
2021/06/03 09:47:03;;;;;;;1.90;1.77;;;;;;;;;;5094904;28;20200;-85
2021/06/03 09:49:33;;;;;;;3.00;2.15;;;;;;;;;;5095156;28;20264;-86
2021/06/03 09:52:05;;;;;;;1.90;1.80;;;;;;;;;;5095004;28;20200;-86
2021/06/03 09:54:34;;;;;;;1.70;1.60;;;;;;;;;;5095078;28;20292;-86
2021/06/03 09:57:04;;;;;;;2.05;1.77;;;;;;;;;;5095928;28;20711;-84
2021/06/03 09:59:35;;;;;;;1.60;1.50;;;;;;;;;;5094873;28;20207;-85
2021/06/03 10:02:06;;;;;;;1.92;1.83;;;;;;;;;;5094947;28;20224;-85
2021/06/03 10:04:43;;;;;;;2.00;1.90;;;;;;;;;;5095703;28;20220;-84
2021/06/03 10:07:18;;;;;;;1.73;1.45;;;;;;;;;;5095483;28;20625;-85
2021/06/03 10:09:59;;;;;;;1.88;1.77;;;;;;;;;;5093958;28;20249;-84
2021/06/03 10:12:36;;;;;;;2.28;1.63;;;;;;;;;;5095040;28;20196;-84
2021/06/03 10:15:09;;;;;;;2.15;1.58;;;;;;;;;;5094830;28;20215;-84
2021/06/03 10:17:38;;;;;;;1.80;1.63;;;;;;;;;;5095398;28;20200;-84
2021/06/03 10:20:10;;;;;;;1.98;1.70;;;;;;;;;;5094991;28;20204;-84
2021/06/03 10:22:39;;;;;;;1.92;1.50;;;;;;;;;;5094747;28;20205;-84
2021/06/03 10:25:14;;;;;;;2.03;1.83;;;;;;;;;;5094499;28;20224;-84
2021/06/03 10:27:43;;;;;;;1.70;1.60;;;;;;;;;;5094492;28;20256;-84
2021/06/03 10:30:14;;;;;;;2.15;2.05;;;;;;;;;;5094169;28;20663;-85
2021/06/03 10:32:43;;;;;;;1.77;1.65;;;;;;;;;;5094293;28;20204;-84
2021/06/03 10:35:13;;;;;;;1.60;1.50;;;;;;;;;;5094064;28;20220;-85
2021/06/03 10:37:42;;;;;;;2.00;1.90;;;;;;;;;;5094294;28;20627;-84
2021/06/03 10:40:14;;;;;;;1.65;1.55;;;;;;;;;;5094247;28;20223;-84
2021/06/03 10:42:41;;;;;;;1.75;1.65;;;;;;;;;;5093781;28;20224;-84
2021/06/03 10:45:11;;;;;;;1.77;1.67;;;;;;;;;;5093436;28;20642;-85
2021/06/03 10:47:38;;;;;;;1.52;1.42;;;;;;;;;;5093607;28;20674;-86
2021/06/03 10:50:09;;;;;;;1.70;1.60;;;;;;;;;;5094363;28;20577;-84
2021/06/03 10:52:36;;;;;;;1.98;1.88;;;;;;;;;;5093262;28;20196;-85
2021/06/03 10:55:06;;;;;;;2.72;2.00;;;;;;;;;;5094016;28;20224;-84
2021/06/03 10:57:53;;;;;;;3.28;2.17;;;;;;;;;;5093618;28;20204;-84
2021/06/03 11:00:33;;;;;;;1.92;1.83;;;;;;;;;;5094031;28;20191;-84
2021/06/03 11:03:02;;;;;;;1.90;1.80;;;;;;;;;;5093264;28;20228;-84
2021/06/03 11:05:32;;;;;;;3.33;1.80;;;;;;;;;;5093757;28;20217;-84
2021/06/03 11:08:28;;;;;;;2.88;2.13;;;;;;;;;;5094212;28;20211;-84
2021/06/03 11:11:11;;;;;;;2.10;1.90;;;;;;;;;;5094386;28;20200;-84
2021/06/03 11:14:05;;;;;;;2.15;1.95;;;;;;;;;;5110914;28;20296;-84
2021/06/03 11:16:46;;;;;;;1.90;1.80;;;;;;;;;;5114119;28;20199;-83
2021/06/03 11:19:14;;;;;;;2.70;1.95;;;;;;;;;;5114830;28;20218;-84
2021/06/03 11:22:14;;;;;;;2.63;2.22;;;;;;;;;;5111802;28;20283;-84
2021/06/03 11:24:48;;;;;;;2.13;2.00;;;;;;;;;;5093115;28;20242;-84
2021/06/03 11:27:34;;;;;;;2.90;1.92;;;;;;;;;;5093487;28;20196;-84
2021/06/03 11:30:10;;;;;;;2.38;1.95;;;;;;;;;;5093041;28;20208;-84
2021/06/03 11:32:42;;;;;;;1.80;1.70;;;;;;;;;;5102198;28;20187;-85
2021/06/03 11:35:14;;;;;;;2.55;2.00;;;;;;;;;;5113674;28;20262;-84
2021/06/03 11:37:48;;;;;;;2.08;1.98;;;;;;;;;;5114184;28;20200;-84
2021/06/03 11:40:20;;;;;;;3.72;2.03;;;;;;;;;;5113799;28;20198;-84
2021/06/03 11:42:48;;;;;;;2.25;1.92;;;;;;;;;;5113731;28;20289;-84
2021/06/03 11:45:30;;;;;;;2.25;2.05;;;;;;;;;;5113758;28;20226;-84
2021/06/03 11:48:19;;;;;;;2.92;2.00;;;;;;;;;;5113866;28;20207;-84
2021/06/03 11:50:49;;;;;;;2.63;2.00;;;;;;;;;;5112493;28;20738;-84
2021/06/03 11:53:20;;;;;;;2.10;1.90;;;;;;;;;;5113848;28;20390;-84
2021/06/03 11:55:51;;;;;;;2.35;2.17;;;;;;;;;;5113457;28;20228;-84
2021/06/03 11:58:28;;;;;;;3.05;2.25;;;;;;;;;;5112959;28;20575;-84
2021/06/03 12:01:03;;;;;;;2.20;1.83;;;;;;;;;;5109624;28;20332;-84
2021/06/03 12:03:35;;;;;;;2.58;1.80;;;;;;;;;;5093534;28;20231;-84
2021/06/03 12:06:05;;;;;;;1.85;1.75;;;;;;;;;;5093169;28;20200;-83
2021/06/03 12:08:36;;;;;;;2.88;1.98;;;;;;;;;;5093255;28;20204;-84
2021/06/03 12:11:05;;;;;;;4.38;2.10;;;;;;;;;;5093217;28;20204;-84
2021/06/03 12:13:32;;;;;;;2.90;2.70;;;;;;;;;;5093754;28;20226;-84
2021/06/03 12:16:01;;;;;;;2.00;1.90;;;;;;;;;;5094063;28;20287;-84
2021/06/03 12:18:40;;;;;;;2.17;1.60;;;;;;;;;;5093252;28;20212;-84
2021/06/03 12:21:10;;;;;;;2.10;2.00;;;;;;;;;;5097805;28;20191;-84
2021/06/03 12:23:47;;;;;;;1.60;1.50;;;;;;;;;;5113542;28;20230;-83
2021/06/03 12:26:19;;;;;;;1.73;1.63;;;;;;;;;;5113788;28;20737;-84
2021/06/03 12:28:46;;;;;;;2.40;1.65;;;;;;;;;;5113590;28;20241;-84
2021/06/03 12:31:24;;;;;;;1.70;1.60;;;;;;;;;;5113840;28;20195;-84
2021/06/03 12:33:51;;;;;;;1.95;1.85;;;;;;;;;;5117734;28;20229;-84
2021/06/03 12:36:19;;;;;;;1.85;1.75;;;;;;;;;;5117800;28;20725;-84
2021/06/03 12:38:48;;;;;;;2.08;1.90;;;;;;;;;;5117958;28;20196;-84
2021/06/03 12:41:29;;;;;;;2.05;1.95;;;;;;;;;;5117834;28;20207;-84
2021/06/03 12:43:59;;;;;;;2.17;1.98;;;;;;;;;;5117947;28;20219;-84
2021/06/03 12:46:38;;;;;;;2.28;2.08;;;;;;;;;;5118143;28;20356;-84
2021/06/03 12:49:09;;;;;;;1.83;1.73;;;;;;;;;;5117747;28;20195;-84
2021/06/03 12:51:45;;;;;;;1.70;1.60;;;;;;;;;;5117724;28;20203;-85
2021/06/03 12:54:13;;;;;;;1.92;1.83;;;;;;;;;;5117555;28;20223;-84
2021/06/03 12:56:40;;;;;;;1.85;1.75;;;;;;;;;;5117102;28;20673;-84
2021/06/03 12:59:20;;;;;;;4.88;1.90;;;;;;;;;;5117782;28;20203;-84
2021/06/03 13:02:00;;;;;;;1.92;1.83;;;;;;;;;;5118890;28;20214;-85
2021/06/03 13:04:39;;;;;;;2.10;2.00;;;;;;;;;;5118100;28;20227;-84
2021/06/03 13:07:09;;;;;;;2.35;1.80;;;;;;;;;;5117625;28;20222;-84
2021/06/03 13:09:38;;;;;;;2.20;1.77;;;;;;;;;;5118205;28;20661;-84
2021/06/03 13:12:08;;;;;;;2.13;2.03;;;;;;;;;;5118199;28;20199;-84
2021/06/03 13:14:40;;;;;;;1.95;1.85;;;;;;;;;;5117493;28;20227;-84
2021/06/03 13:17:11;;;;;;;2.47;1.80;;;;;;;;;;5116474;28;20202;-84
2021/06/03 13:19:40;;;;;;;1.90;1.80;;;;;;;;;;5116580;28;20207;-85
2021/06/03 13:22:08;;;;;;;2.33;2.13;;;;;;;;;;5116599;28;20642;-84
2021/06/03 13:24:38;;;;;;;8.43;1.95;;;;;;;;;;5116488;28;20227;-84
2021/06/03 13:27:08;;;;;;;1.90;1.80;;;;;;;;;;5117433;28;20263;-84
2021/06/03 13:29:40;;;;;;;1.90;1.80;;;;;;;;;;5116621;28;20559;-85
2021/06/03 13:32:09;;;;;;;2.38;2.10;;;;;;;;;;5115841;28;20186;-85
2021/06/03 13:34:39;;;;;;;2.00;1.90;;;;;;;;;;5116063;28;20219;-84
2021/06/03 13:37:13;;;;;;;3.45;2.10;;;;;;;;;;5115789;28;20274;-84
2021/06/03 13:39:44;;;;;;;2.58;2.33;;;;;;;;;;5105277;28;20207;-84
2021/06/03 13:42:19;;;;;;;2.45;2.33;;;;;;;;;;5093083;28;20208;-84
2021/06/03 13:44:58;;;;;;;2.17;1.98;;;;;;;;;;5094424;28;20279;-84
2021/06/03 13:47:48;;;;;;;3.00;2.80;;;;;;;;;;5095268;28;20291;-85
2021/06/03 13:50:32;;;;;;;1.80;1.70;;;;;;;;;;5095196;28;20193;-84
2021/06/03 13:53:08;;;;;;;2.20;2.00;;;;;;;;;;5094891;28;20196;-84
2021/06/03 13:55:46;;;;;;;3.70;1.98;;;;;;;;;;5095213;28;20246;-84
2021/06/03 13:58:14;;;;;;;2.88;2.10;;;;;;;;;;5094982;28;20204;-84
2021/06/03 14:00:44;;;;;;;2.10;2.00;;;;;;;;;;5094755;28;20250;-84
2021/06/03 14:03:15;;;;;;;3.10;2.67;;;;;;;;;;5094614;28;20523;-83
2021/06/03 14:05:57;;;;;;;2.88;2.15;;;;;;;;;;5095298;28;20220;-84
2021/06/03 14:08:32;;;;;;;2.85;2.65;;;;;;;;;;5095275;28;20212;-84
2021/06/03 14:11:03;;;;;;;2.30;2.15;;;;;;;;;;5095135;28;20206;-84
2021/06/03 14:13:30;;;;;;;2.40;2.30;;;;;;;;;;5094816;28;20200;-84
2021/06/03 14:15:56;;;;;;;3.22;2.15;;;;;;;;;;5094906;28;20551;-85
2021/06/03 14:18:27;;;;;;;2.72;2.53;;;;;;;;;;5094835;28;20306;-84
2021/06/03 14:20:54;;;;;;;2.60;2.40;;;;;;;;;;5094846;28;20389;-85
2021/06/03 14:23:21;;;;;;;2.70;2.50;;;;;;;;;;5093761;28;20224;-84
2021/06/03 14:25:48;;;;;;;2.72;2.53;;;;;;;;;;5094041;28;20224;-84
2021/06/03 14:28:18;;;;;;;2.50;2.13;;;;;;;;;;5094885;28;20176;-84
2021/06/03 14:30:51;;;;;;;1.95;1.85;;;;;;;;;;5095112;28;20287;-84
2021/06/03 14:33:20;;;;;;;2.05;1.90;;;;;;;;;;5094369;28;20210;-84
2021/06/03 14:35:50;;;;;;;2.35;2.15;;;;;;;;;;5094259;28;20769;-84
2021/06/03 14:38:18;;;;;;;2.67;2.47;;;;;;;;;;5094259;28;20208;-84
2021/06/03 14:40:54;;;;;;;3.58;2.58;;;;;;;;;;5094013;28;20204;-84
2021/06/03 14:43:23;;;;;;;3.28;2.60;;;;;;;;;;5112116;28;20684;-84
2021/06/03 14:45:51;;;;;;;2.65;2.38;;;;;;;;;;5114721;28;20258;-84
2021/06/03 14:48:21;;;;;;;3.10;2.53;;;;;;;;;;5114583;28;20690;-84
2021/06/03 14:50:52;;;;;;;3.15;2.30;;;;;;;;;;5115037;28;20184;-84
2021/06/03 14:53:22;;;;;;;2.50;2.30;;;;;;;;;;5114262;28;20196;-83
2021/06/03 14:55:51;;;;;;;2.55;2.40;;;;;;;;;;5114458;28;20219;-84
2021/06/03 14:58:20;;;;;;;2.38;2.17;;;;;;;;;;5114439;28;20199;-84
2021/06/03 15:00:49;;;;;;;2.42;2.22;;;;;;;;;;5114568;28;20244;-84
2021/06/03 15:03:17;;;;;;;2.88;2.05;;;;;;;;;;5114612;28;20232;-83
2021/06/03 15:05:44;;;;;;;2.75;2.22;;;;;;;;;;5114426;28;20231;-84